createdAt,value
2022-09-19T00:00:36.260Z,60.30
2022-09-19T00:03:43.769Z,60.40
2022-09-19T00:06:47.540Z,60.30
2022-09-19T00:09:49.696Z,60.30
2022-09-19T00:12:52.779Z,60.40
2022-09-19T00:15:55.024Z,60.30
2022-09-19T00:19:00.851Z,60.20
2022-09-19T00:22:04.011Z,60.20
2022-09-19T00:25:07.596Z,60.20
2022-09-19T00:28:10.261Z,60.20
2022-09-19T00:31:18.600Z,60.30
2022-09-19T00:34:22.103Z,60.20
2022-09-19T00:37:25.181Z,60.30
2022-09-19T00:40:27.294Z,60.20
2022-09-19T00:43:55.976Z,60.20
2022-09-19T00:47:15.818Z,60.40
2022-09-19T00:50:27.504Z,60.30
2022-09-19T00:53:31.840Z,60.40
2022-09-19T00:56:34.882Z,60.30
2022-09-19T00:59:39.225Z,60.20
2022-09-19T01:02:42.455Z,60.30
2022-09-19T01:06:09.717Z,60.20
2022-09-19T01:09:14.745Z,60.30
2022-09-19T01:12:46.248Z,60.20
2022-09-19T01:16:02.102Z,60.20
2022-09-19T01:19:31.420Z,60.20
2022-09-19T01:22:36.287Z,60.20
2022-09-19T01:25:51.069Z,60.20
2022-09-19T01:29:16.467Z,60.40
2022-09-19T01:32:24.395Z,60.30
2022-09-19T01:35:33.122Z,60.30
2022-09-19T01:38:40.263Z,60.40
2022-09-19T01:41:52.279Z,60.20
2022-09-19T01:44:55.617Z,60.30
2022-09-19T01:48:09.470Z,60.30
2022-09-19T01:51:36.562Z,60.20
2022-09-19T01:54:55.213Z,60.30
2022-09-19T01:58:16.977Z,60.30
2022-09-19T02:01:32.667Z,60.30
2022-09-19T02:04:46.322Z,60.30
2022-09-19T02:08:24.657Z,60.40
2022-09-19T02:11:28.339Z,60.40
2022-09-19T02:14:35.716Z,60.30
2022-09-19T02:17:46.158Z,60.30
2022-09-19T02:20:59.123Z,60.40
2022-09-19T02:24:07.505Z,60.30
2022-09-19T02:27:21.635Z,60.40
2022-09-19T02:30:24.231Z,60.30
2022-09-19T02:33:28.377Z,60.40
2022-09-19T02:36:48.274Z,60.30
2022-09-19T02:39:59.837Z,60.40
2022-09-19T02:43:29.374Z,60.40
2022-09-19T02:46:43.472Z,60.40
2022-09-19T02:49:57.096Z,60.40
2022-09-19T02:53:03.372Z,60.40
2022-09-19T02:56:07.554Z,60.40
2022-09-19T02:59:26.578Z,60.30
2022-09-19T03:02:41.257Z,60.40
2022-09-19T03:05:44.279Z,60.40
2022-09-19T03:08:52.020Z,60.40
2022-09-19T03:12:19.372Z,60.40
2022-09-19T03:15:48.548Z,60.40
2022-09-19T03:18:58.602Z,60.40
2022-09-19T03:22:01.342Z,60.50
2022-09-19T03:25:11.959Z,60.50
2022-09-19T03:28:20.585Z,60.50
2022-09-19T03:31:24.601Z,60.50
2022-09-19T03:34:26.895Z,60.50
2022-09-19T03:37:29.722Z,60.60
2022-09-19T03:40:31.984Z,61.30
2022-09-19T03:43:34.885Z,60.50
2022-09-19T03:46:38.641Z,60.50
2022-09-19T03:49:40.898Z,60.50
2022-09-19T03:52:48.607Z,60.50
2022-09-19T03:55:52.389Z,60.50
2022-09-19T03:58:54.855Z,60.50
2022-09-19T04:01:59.457Z,60.40
2022-09-19T04:05:03.299Z,60.50
2022-09-19T04:08:06.485Z,60.40
2022-09-19T04:11:10.070Z,60.30
2022-09-19T04:14:12.455Z,60.40
2022-09-19T04:17:23.404Z,60.40
2022-09-19T04:20:31.091Z,60.30
2022-09-19T04:23:41.051Z,60.30
2022-09-19T04:26:51.336Z,60.40
2022-09-19T04:29:53.506Z,60.40
2022-09-19T04:32:55.682Z,60.30
2022-09-19T04:36:01.599Z,60.40
2022-09-19T04:39:08.043Z,60.40
2022-09-19T04:42:13.055Z,60.30
2022-09-19T04:45:21.469Z,60.50
2022-09-19T04:48:43.830Z,60.30
2022-09-19T04:51:47.310Z,60.30
2022-09-19T04:54:50.270Z,59.10
2022-09-19T04:57:53.825Z,58.20
2022-09-19T05:00:57.025Z,57.90
2022-09-19T05:04:01.573Z,57.30
2022-09-19T05:07:04.134Z,57.20
2022-09-19T05:10:08.768Z,57.30
2022-09-19T05:13:12.966Z,57.90
2022-09-19T05:16:17.005Z,57.80
2022-09-19T05:19:33.785Z,57.90
2022-09-19T05:22:37.143Z,57.60
2022-09-19T05:25:42.322Z,57.80
2022-09-19T05:28:48.286Z,57.90
2022-09-19T05:31:55.937Z,58.10
2022-09-19T05:35:09.377Z,58.40
2022-09-19T05:38:19.413Z,58.50
2022-09-19T05:41:27.425Z,58.60
2022-09-19T05:44:33.348Z,58.70
2022-09-19T05:47:40.572Z,58.70
2022-09-19T05:50:45.335Z,58.70
2022-09-19T05:53:53.569Z,58.80
2022-09-19T05:57:14.464Z,58.90
2022-09-19T06:00:16.856Z,58.90
2022-09-19T06:03:21.445Z,59.00
2022-09-19T06:06:25.159Z,59.00
2022-09-19T06:09:29.153Z,59.00
2022-09-19T06:12:33.816Z,59.10
2022-09-19T06:15:35.968Z,59.20
2022-09-19T06:18:42.281Z,59.20
2022-09-19T06:21:46.382Z,59.20
2022-09-19T06:24:48.821Z,59.30
2022-09-19T06:27:55.460Z,59.40
2022-09-19T06:31:04.716Z,59.40
2022-09-19T06:34:54.424Z,59.40
2022-09-19T06:38:00.154Z,59.40
2022-09-19T06:41:06.780Z,59.50
2022-09-19T06:44:34.004Z,59.50
2022-09-19T06:48:00.432Z,59.50
2022-09-19T06:51:18.717Z,59.50
2022-09-19T06:54:23.573Z,59.50
2022-09-19T06:57:25.974Z,59.50
2022-09-19T07:00:30.803Z,59.60
2022-09-19T07:03:35.660Z,59.60
2022-09-19T07:06:40.753Z,59.60
2022-09-19T07:09:48.826Z,59.70
2022-09-19T07:12:56.915Z,59.80
2022-09-19T07:16:02.618Z,59.80
2022-09-19T07:19:05.411Z,59.80
2022-09-19T07:22:32.428Z,59.90
2022-09-19T07:25:46.211Z,60.00
2022-09-19T07:28:53.039Z,60.10
2022-09-19T07:31:57.536Z,60.20
2022-09-19T07:35:00.201Z,60.30
2022-09-19T07:38:03.101Z,60.40
2022-09-19T07:41:15.122Z,60.50
2022-09-19T07:44:46.548Z,60.60
2022-09-19T07:48:06.569Z,60.70
2022-09-19T07:51:17.019Z,60.70
2022-09-19T07:54:19.165Z,60.80
2022-09-19T07:57:21.598Z,61.00
2022-09-19T08:00:30.145Z,61.10
2022-09-19T08:03:34.704Z,61.20
2022-09-19T08:06:38.140Z,61.30
2022-09-19T08:09:42.330Z,61.50
2022-09-19T08:12:50.191Z,61.60
2022-09-19T08:15:52.324Z,61.60
2022-09-19T08:18:57.190Z,61.70
2022-09-19T08:21:59.732Z,61.90
2022-09-19T08:25:08.861Z,62.00
2022-09-19T08:28:11.843Z,62.00
2022-09-19T08:31:14.560Z,61.90
2022-09-19T08:34:18.839Z,62.00
2022-09-19T08:37:26.442Z,62.20
2022-09-19T08:40:32.368Z,63.00
2022-09-19T08:44:06.003Z,62.40
2022-09-19T08:47:15.107Z,62.40
2022-09-19T08:50:24.154Z,62.40
2022-09-19T08:53:33.505Z,62.30
2022-09-19T08:56:39.355Z,62.30
2022-09-19T08:59:42.531Z,62.30
2022-09-19T09:03:16.044Z,62.50
2022-09-19T09:06:53.205Z,62.50
2022-09-19T09:10:20.450Z,62.70
2022-09-19T09:13:58.458Z,62.80
2022-09-19T09:17:36.858Z,62.70
2022-09-19T09:20:49.610Z,62.70
2022-09-19T09:24:33.442Z,62.80
2022-09-19T09:28:13.280Z,62.70
2022-09-19T09:31:40.042Z,62.70
2022-09-19T09:35:30.750Z,62.80
2022-09-19T09:38:53.288Z,62.80
2022-09-19T09:42:05.475Z,62.70
2022-09-19T09:45:35.172Z,62.60
2022-09-19T09:48:40.350Z,62.60
2022-09-19T09:52:05.465Z,62.60
2022-09-19T09:56:17.508Z,62.60
2022-09-19T10:00:16.023Z,62.60
2022-09-19T10:03:49.540Z,62.50
2022-09-19T10:07:04.249Z,62.60
2022-09-19T10:10:14.913Z,62.60
2022-09-19T10:13:32.690Z,62.60
2022-09-19T10:16:37.279Z,62.60
2022-09-19T10:19:51.431Z,62.70
2022-09-19T10:22:54.673Z,62.70
2022-09-19T10:26:07.151Z,62.60
2022-09-19T10:29:15.804Z,62.50
2022-09-19T10:32:20.640Z,62.50
2022-09-19T10:35:44.334Z,62.50
2022-09-19T10:38:55.263Z,62.60
2022-09-19T10:41:58.363Z,62.60
2022-09-19T10:45:03.006Z,62.60
2022-09-19T10:48:30.435Z,62.50
2022-09-19T10:51:44.930Z,62.60
2022-09-19T10:54:47.261Z,62.50
2022-09-19T10:58:02.441Z,62.50
2022-09-19T11:01:19.681Z,62.60
2022-09-19T11:04:25.307Z,62.50
2022-09-19T11:07:31.510Z,62.60
2022-09-19T11:10:40.041Z,62.50
2022-09-19T11:14:10.976Z,62.60
2022-09-19T11:17:13.472Z,62.60
2022-09-19T11:20:42.108Z,62.40
2022-09-19T11:24:50.999Z,62.40
2022-09-19T11:27:53.284Z,63.20
2022-09-19T11:31:06.723Z,62.40
2022-09-19T11:37:59.905Z,62.30
2022-09-19T11:41:36.803Z,62.20
2022-09-19T11:45:12.922Z,62.20
2022-09-19T11:48:56.236Z,62.30
2022-09-19T11:52:27.389Z,62.30
2022-09-19T11:55:46.156Z,62.30
2022-09-19T11:59:15.089Z,62.20
2022-09-19T12:02:59.665Z,62.20
2022-09-19T12:06:34.659Z,62.20
2022-09-19T12:09:37.310Z,62.20
2022-09-19T12:12:44.505Z,62.10
2022-09-19T12:16:15.980Z,62.20
2022-09-19T12:19:24.889Z,62.10
2022-09-19T12:22:32.593Z,62.00
2022-09-19T12:25:35.850Z,61.90
2022-09-19T12:28:48.193Z,61.80
2022-09-19T12:32:00.603Z,61.60
2022-09-19T12:35:21.985Z,61.60
2022-09-19T12:38:41.168Z,61.50
2022-09-19T12:41:50.321Z,61.40
2022-09-19T12:45:25.882Z,61.10
2022-09-19T12:48:41.405Z,61.40
2022-09-19T12:52:27.020Z,61.20
2022-09-19T12:55:39.767Z,60.90
2022-09-19T12:58:49.607Z,60.80
2022-09-19T13:02:00.027Z,60.80
2022-09-19T13:05:15.282Z,60.70
2022-09-19T13:08:23.649Z,60.60
2022-09-19T13:11:38.090Z,60.70
2022-09-19T13:14:59.223Z,60.70
2022-09-19T13:18:20.505Z,60.70
2022-09-19T13:21:55.134Z,60.50
2022-09-19T13:24:58.389Z,60.30
2022-09-19T13:28:19.370Z,60.30
2022-09-19T13:31:56.749Z,60.20
2022-09-19T13:35:05.088Z,60.10
2022-09-19T13:38:37.010Z,60.10
2022-09-19T13:42:10.926Z,60.10
2022-09-19T13:45:35.813Z,59.80
2022-09-19T13:48:54.069Z,59.80
2022-09-19T13:52:16.818Z,59.80
2022-09-19T13:55:34.032Z,59.70
2022-09-19T13:58:40.567Z,59.80
2022-09-19T14:01:55.699Z,59.90
2022-09-19T14:05:02.488Z,59.60
2022-09-19T14:11:33.680Z,59.60
2022-09-19T14:14:49.024Z,59.60
2022-09-19T14:18:13.212Z,59.20
2022-09-19T14:21:27.507Z,59.20
2022-09-19T14:24:44.811Z,59.20
2022-09-19T14:28:05.525Z,59.20
2022-09-19T14:31:20.708Z,59.00
2022-09-19T14:34:36.772Z,59.00
2022-09-19T14:38:33.226Z,58.70
2022-09-19T14:42:22.421Z,58.90
2022-09-19T14:46:02.516Z,58.80
2022-09-19T14:49:07.455Z,58.70
2022-09-19T14:52:20.882Z,58.70
2022-09-19T14:55:24.324Z,58.50
2022-09-19T14:58:30.568Z,58.40
2022-09-19T15:01:37.974Z,58.60
2022-09-19T15:04:41.391Z,58.50
2022-09-19T15:07:43.837Z,58.50
2022-09-19T15:10:47.290Z,58.40
2022-09-19T15:13:54.693Z,58.40
2022-09-19T15:17:11.041Z,58.40
2022-09-19T15:20:16.820Z,58.70
2022-09-19T15:23:19.348Z,58.50
2022-09-19T15:26:27.172Z,58.50
2022-09-19T15:29:38.118Z,58.40
2022-09-19T15:32:41.327Z,58.30
2022-09-19T15:35:44.945Z,58.40
2022-09-19T15:38:48.173Z,58.40
2022-09-19T15:41:50.468Z,58.40
2022-09-19T15:44:54.298Z,58.40
2022-09-19T15:48:11.477Z,58.50
2022-09-19T15:51:28.941Z,58.40
2022-09-19T15:54:31.840Z,58.60
2022-09-19T15:57:46.384Z,58.40
2022-09-19T16:00:48.824Z,58.40
2022-09-19T16:04:12.209Z,58.40
2022-09-19T16:07:44.946Z,58.60
2022-09-19T16:10:55.055Z,58.40
2022-09-19T16:14:11.022Z,58.50
2022-09-19T16:17:17.218Z,58.50
2022-09-19T16:20:31.568Z,58.50
2022-09-19T16:23:49.314Z,58.40
2022-09-19T16:26:59.182Z,58.40
2022-09-19T16:30:03.656Z,58.40
2022-09-19T16:33:13.708Z,58.20
2022-09-19T16:36:16.948Z,58.30
2022-09-19T16:39:32.381Z,58.10
2022-09-19T16:42:36.344Z,58.20
2022-09-19T16:45:41.768Z,58.10
2022-09-19T16:48:44.480Z,58.10
2022-09-19T16:51:50.773Z,56.20
2022-09-19T16:54:54.255Z,56.30
2022-09-19T16:58:00.185Z,56.00
2022-09-19T17:01:02.961Z,56.00
2022-09-19T17:04:05.856Z,56.10
2022-09-19T17:07:11.497Z,56.00
2022-09-19T17:10:15.618Z,56.30
2022-09-19T17:13:17.722Z,56.20
2022-09-19T17:16:20.990Z,56.40
2022-09-19T17:19:23.272Z,56.40
2022-09-19T17:22:25.437Z,56.30
2022-09-19T17:25:42.651Z,56.40
2022-09-19T17:28:45.480Z,56.50
2022-09-19T17:31:48.279Z,56.60
2022-09-19T17:34:50.488Z,56.50
2022-09-19T17:37:52.628Z,56.50
2022-09-19T17:40:54.882Z,56.70
2022-09-19T17:43:57.045Z,56.60
2022-09-19T17:46:59.134Z,56.60
2022-09-19T17:50:01.502Z,56.70
2022-09-19T17:53:05.126Z,56.70
2022-09-19T17:56:28.027Z,56.70
2022-09-19T17:59:30.522Z,57.00
2022-09-19T18:02:51.535Z,57.00
2022-09-19T18:05:58.804Z,57.20
2022-09-19T18:09:02.220Z,57.10
2022-09-19T18:12:04.418Z,57.90
2022-09-19T18:15:10.410Z,57.40
2022-09-19T18:18:13.441Z,57.50
2022-09-19T18:21:16.816Z,57.60
2022-09-19T18:24:19.092Z,57.70
2022-09-19T18:27:21.385Z,57.80
2022-09-19T18:30:23.868Z,57.90
2022-09-19T18:33:26.885Z,58.00
2022-09-19T18:36:29.526Z,58.10
2022-09-19T18:39:31.647Z,58.30
2022-09-19T18:42:33.906Z,58.30
2022-09-19T18:45:36.069Z,58.40
2022-09-19T18:48:38.780Z,58.50
2022-09-19T18:51:41.233Z,58.50
2022-09-19T18:54:43.538Z,58.50
2022-09-19T18:57:46.117Z,58.50
2022-09-19T19:00:49.487Z,58.50
2022-09-19T19:03:53.811Z,58.50
2022-09-19T19:06:55.948Z,58.50
2022-09-19T19:09:58.636Z,58.60
2022-09-19T19:13:01.693Z,58.60
2022-09-19T19:16:05.894Z,58.60
2022-09-19T19:19:10.567Z,58.50
2022-09-19T19:22:12.739Z,58.60
2022-09-19T19:25:16.305Z,58.60
2022-09-19T19:28:18.565Z,58.60
2022-09-19T19:31:22.138Z,58.60
2022-09-19T19:34:24.359Z,58.60
2022-09-19T19:37:26.790Z,58.70
2022-09-19T19:40:29.288Z,58.70
2022-09-19T19:43:32.818Z,58.80
2022-09-19T19:46:37.203Z,58.80
2022-09-19T19:49:39.356Z,58.80
2022-09-19T19:52:41.660Z,58.80
2022-09-19T19:55:43.882Z,58.80
2022-09-19T19:58:46.807Z,58.80
2022-09-19T20:01:49.250Z,58.90
2022-09-19T20:04:51.877Z,58.80
2022-09-19T20:07:54.167Z,58.80
2022-09-19T20:10:58.348Z,58.70
2022-09-19T20:14:03.374Z,58.80
2022-09-19T20:17:05.704Z,58.70
2022-09-19T20:20:09.944Z,58.70
2022-09-19T20:23:12.225Z,58.70
2022-09-19T20:26:18.274Z,58.80
2022-09-19T20:29:24.230Z,58.50
2022-09-19T20:32:27.004Z,58.60
2022-09-19T20:35:32.044Z,58.60
2022-09-19T20:38:36.308Z,58.40
2022-09-19T20:41:43.916Z,58.40
2022-09-19T20:44:46.312Z,58.40
2022-09-19T20:47:49.572Z,58.30
2022-09-19T20:50:56.485Z,58.30
2022-09-19T20:53:58.667Z,58.30
2022-09-19T20:57:00.935Z,58.30
2022-09-19T21:00:03.458Z,58.20
2022-09-19T21:03:06.385Z,58.30
2022-09-19T21:06:11.842Z,58.30
2022-09-19T21:09:14.035Z,58.30
2022-09-19T21:12:42.555Z,58.30
2022-09-19T21:15:38.769Z,58.20
2022-09-19T21:18:43.784Z,58.10
2022-09-19T21:21:46.003Z,58.20
2022-09-19T21:24:48.167Z,58.20
2022-09-19T21:27:50.310Z,58.10
2022-09-19T21:30:52.437Z,58.00
2022-09-19T21:33:59.235Z,58.10
2022-09-19T21:37:01.303Z,57.90
2022-09-19T21:40:03.875Z,58.00
2022-09-19T21:43:06.243Z,58.00
2022-09-19T21:46:11.141Z,57.90
2022-09-19T21:49:13.432Z,57.80
2022-09-19T21:52:15.591Z,57.70
2022-09-19T21:55:17.823Z,57.80
2022-09-19T21:58:20.828Z,57.70
2022-09-19T22:01:26.400Z,57.70
2022-09-19T22:04:28.528Z,58.20
2022-09-19T22:07:30.695Z,57.70
2022-09-19T22:10:35.303Z,57.70
2022-09-19T22:13:38.857Z,57.80
2022-09-19T22:16:41.746Z,57.70
2022-09-19T22:19:43.902Z,57.70
2022-09-19T22:22:46.229Z,57.70
2022-09-19T22:25:48.513Z,57.70
2022-09-19T22:28:52.119Z,57.80
2022-09-19T22:31:54.412Z,57.60
2022-09-19T22:34:56.601Z,57.60
2022-09-19T22:37:59.143Z,57.60
2022-09-19T22:41:03.997Z,57.60
2022-09-19T22:44:06.289Z,57.70
2022-09-19T22:47:08.432Z,57.60
2022-09-19T22:50:10.690Z,57.70
2022-09-19T22:53:12.801Z,57.70
2022-09-19T22:56:20.351Z,57.70
2022-09-19T22:59:23.152Z,57.70
2022-09-19T23:02:26.145Z,57.70
2022-09-19T23:05:28.512Z,57.70
2022-09-19T23:08:30.798Z,57.70
2022-09-19T23:11:34.632Z,57.70
2022-09-19T23:14:37.142Z,57.80
2022-09-19T23:17:39.271Z,57.80
2022-09-19T23:20:41.363Z,57.80
2022-09-19T23:23:45.464Z,57.70
2022-09-19T23:26:48.079Z,57.50
2022-09-19T23:29:50.231Z,57.60
2022-09-19T23:32:52.392Z,57.50
2022-09-19T23:36:02.836Z,57.60
2022-09-19T23:39:06.415Z,57.60
2022-09-19T23:42:08.601Z,57.40
2022-09-19T23:45:10.933Z,57.40
2022-09-19T23:48:13.183Z,57.40
2022-09-19T23:51:16.294Z,57.50
2022-09-19T23:54:20.025Z,57.50
2022-09-19T23:57:22.230Z,57.40
